createdAt,value
2023-01-25T00:02:22.567Z,10.50
2023-01-25T00:04:49.307Z,9.07
2023-01-25T00:07:17.372Z,8.43
2023-01-25T00:09:44.132Z,10.15
2023-01-25T00:12:10.853Z,8.27
2023-01-25T00:14:37.582Z,9.32
2023-01-25T00:17:04.723Z,9.25
2023-01-25T00:19:31.506Z,8.70
2023-01-25T00:21:58.241Z,9.27
2023-01-25T00:24:26.483Z,10.48
2023-01-25T00:26:53.263Z,10.07
2023-01-25T00:29:20.319Z,10.80
2023-01-25T00:31:54.962Z,9.75
2023-01-25T00:34:42.923Z,9.07
2023-01-25T00:37:23.776Z,9.00
2023-01-25T00:39:51.964Z,8.85
2023-01-25T00:42:20.066Z,9.35
2023-01-25T00:44:47.564Z,9.15
2023-01-25T00:47:15.671Z,9.45
2023-01-25T00:49:44.034Z,10.73
2023-01-25T00:52:11.494Z,8.70
2023-01-25T00:54:38.526Z,11.05
2023-01-25T00:57:07.865Z,9.05
2023-01-25T00:59:34.597Z,10.93
2023-01-25T01:02:02.411Z,9.60
2023-01-25T01:04:29.932Z,8.65
2023-01-25T01:06:56.676Z,9.85
2023-01-25T01:09:24.381Z,10.80
2023-01-25T01:11:51.145Z,9.63
2023-01-25T01:14:19.253Z,10.50
2023-01-25T01:16:46.604Z,10.75
2023-01-25T01:19:15.648Z,10.65
2023-01-25T01:21:42.845Z,12.25
2023-01-25T01:24:10.165Z,9.95
2023-01-25T01:26:36.983Z,9.95
2023-01-25T01:29:03.979Z,12.43
2023-01-25T01:31:32.350Z,11.32
2023-01-25T01:33:59.141Z,9.85
2023-01-25T01:36:28.707Z,10.95
2023-01-25T01:38:55.693Z,10.65
2023-01-25T01:41:22.479Z,11.35
2023-01-25T01:43:49.664Z,9.65
2023-01-25T01:46:24.149Z,9.50
2023-01-25T01:48:55.807Z,10.02
2023-01-25T01:51:27.258Z,10.23
2023-01-25T01:53:59.769Z,8.93
2023-01-25T01:56:32.977Z,9.60
2023-01-25T01:59:01.120Z,9.77
2023-01-25T02:01:28.087Z,10.45
2023-01-25T02:03:56.739Z,9.90
2023-01-25T02:06:31.375Z,8.27
2023-01-25T02:08:59.565Z,8.60
2023-01-25T02:11:27.743Z,10.27
2023-01-25T02:13:56.492Z,9.70
2023-01-25T02:16:27.226Z,9.55
2023-01-25T02:18:56.700Z,11.35
2023-01-25T02:21:24.425Z,8.13
2023-01-25T02:23:56.721Z,8.15
2023-01-25T02:26:25.387Z,11.02
2023-01-25T02:28:55.753Z,11.05
2023-01-25T02:31:22.681Z,10.00
2023-01-25T02:33:49.511Z,10.27
2023-01-25T02:36:20.841Z,9.48
2023-01-25T02:38:54.455Z,9.60
2023-01-25T02:41:29.383Z,7.85
2023-01-25T02:43:56.115Z,9.32
2023-01-25T02:46:25.416Z,9.95
2023-01-25T02:48:52.579Z,9.80
2023-01-25T02:51:19.630Z,11.05
2023-01-25T02:53:46.337Z,10.13
2023-01-25T02:56:13.341Z,9.98
2023-01-25T02:58:41.419Z,8.40
2023-01-25T03:01:08.822Z,9.43
2023-01-25T03:03:35.641Z,10.30
2023-01-25T03:06:02.380Z,8.85
2023-01-25T03:08:29.342Z,9.35
2023-01-25T03:10:57.336Z,9.32
2023-01-25T03:13:24.469Z,9.65
2023-01-25T03:15:53.151Z,8.27
2023-01-25T03:18:19.856Z,8.60
2023-01-25T03:20:46.562Z,9.32
2023-01-25T03:23:13.252Z,8.93
2023-01-25T03:25:39.942Z,8.75
2023-01-25T03:28:06.707Z,8.95
2023-01-25T03:30:33.406Z,9.75
2023-01-25T03:33:01.455Z,8.77
2023-01-25T03:35:28.160Z,8.55
2023-01-25T03:37:54.883Z,8.80
2023-01-25T03:40:21.615Z,9.25
2023-01-25T03:42:48.362Z,8.85
2023-01-25T03:45:15.129Z,9.77
2023-01-25T03:47:42.190Z,10.32
2023-01-25T03:50:11.212Z,8.40
2023-01-25T03:52:37.999Z,9.18
2023-01-25T03:55:05.737Z,11.35
2023-01-25T03:57:32.478Z,9.48
2023-01-25T03:59:59.160Z,7.68
2023-01-25T04:02:25.901Z,8.75
2023-01-25T04:04:52.684Z,9.93
2023-01-25T04:07:20.745Z,8.43
2023-01-25T04:09:47.451Z,8.07
2023-01-25T04:12:14.155Z,8.55
2023-01-25T04:14:44.796Z,6.85
2023-01-25T04:17:11.737Z,7.88
2023-01-25T04:19:38.507Z,7.35
2023-01-25T04:22:05.241Z,7.47
2023-01-25T04:24:33.318Z,6.50
2023-01-25T04:26:59.993Z,7.55
2023-01-25T04:29:40.056Z,8.05
2023-01-25T04:32:07.816Z,8.20
2023-01-25T04:34:34.611Z,8.23
2023-01-25T04:37:01.430Z,7.68
2023-01-25T04:39:28.136Z,9.25
2023-01-25T04:41:56.148Z,7.75
2023-01-25T04:44:23.086Z,9.93
2023-01-25T04:46:49.914Z,8.65
2023-01-25T04:49:16.733Z,10.02
2023-01-25T04:51:43.444Z,10.55
2023-01-25T04:54:10.168Z,10.07
2023-01-25T04:56:36.899Z,8.57
2023-01-25T04:59:04.950Z,8.75
2023-01-25T05:01:31.694Z,8.43
2023-01-25T05:03:58.472Z,8.60
2023-01-25T05:06:25.223Z,9.48
2023-01-25T05:08:51.996Z,9.82
2023-01-25T05:11:18.722Z,9.07
2023-01-25T05:13:45.439Z,9.20
2023-01-25T05:16:13.590Z,8.50
2023-01-25T05:18:48.486Z,9.95
2023-01-25T05:21:15.730Z,9.25
2023-01-25T05:23:42.452Z,7.78
2023-01-25T05:26:09.205Z,10.55
2023-01-25T05:28:35.939Z,10.32
2023-01-25T05:31:04.327Z,9.35
2023-01-25T05:33:32.432Z,9.50
2023-01-25T05:35:59.282Z,9.73
2023-01-25T05:38:25.984Z,9.52
2023-01-25T05:40:52.728Z,10.18
2023-01-25T05:43:19.476Z,8.50
2023-01-25T05:45:52.575Z,8.82
2023-01-25T05:48:19.312Z,8.13
2023-01-25T05:50:47.359Z,9.23
2023-01-25T05:53:14.176Z,8.90
2023-01-25T05:55:40.889Z,8.05
2023-01-25T05:58:07.595Z,9.50
2023-01-25T06:00:34.297Z,9.93
2023-01-25T06:03:01.988Z,7.75
2023-01-25T06:05:28.797Z,9.20
2023-01-25T06:07:58.124Z,8.23
2023-01-25T06:10:24.901Z,7.90
2023-01-25T06:12:56.888Z,8.52
2023-01-25T06:15:23.622Z,8.88
2023-01-25T06:17:53.936Z,9.43
2023-01-25T06:20:20.840Z,9.18
2023-01-25T06:22:49.765Z,8.57
2023-01-25T06:25:18.417Z,8.38
2023-01-25T06:27:45.189Z,8.63
2023-01-25T06:30:12.523Z,7.93
2023-01-25T06:32:39.720Z,7.88
2023-01-25T06:35:07.266Z,9.13
2023-01-25T06:37:34.277Z,7.45
2023-01-25T06:40:01.010Z,8.60
2023-01-25T06:42:29.029Z,9.35
2023-01-25T06:44:55.753Z,9.30
2023-01-25T06:47:22.456Z,8.85
2023-01-25T06:49:49.196Z,8.00
2023-01-25T06:52:16.032Z,9.30
2023-01-25T06:54:42.746Z,8.60
2023-01-25T06:57:09.467Z,7.97
2023-01-25T06:59:37.671Z,8.85
2023-01-25T07:02:04.558Z,8.98
2023-01-25T07:04:31.401Z,8.88
2023-01-25T07:06:58.103Z,7.40
2023-01-25T07:09:24.819Z,9.55
2023-01-25T07:11:51.694Z,8.88
2023-01-25T07:14:18.515Z,9.15
2023-01-25T07:16:46.590Z,9.40
2023-01-25T07:19:13.508Z,8.23
2023-01-25T07:21:40.249Z,7.57
2023-01-25T07:24:07.352Z,7.00
2023-01-25T07:26:34.147Z,6.88
2023-01-25T07:29:00.909Z,8.02
2023-01-25T07:31:27.792Z,8.50
2023-01-25T07:33:57.296Z,6.97
2023-01-25T07:36:24.603Z,7.82
2023-01-25T07:38:53.794Z,7.50
2023-01-25T07:41:20.601Z,7.50
2023-01-25T07:43:47.334Z,8.73
2023-01-25T07:46:14.317Z,6.45
2023-01-25T07:48:45.226Z,7.13
2023-01-25T07:51:13.636Z,7.72
2023-01-25T07:53:40.813Z,8.10
2023-01-25T07:56:08.347Z,6.90
2023-01-25T07:58:35.133Z,7.53
2023-01-25T08:01:09.182Z,8.75
2023-01-25T08:03:36.282Z,8.02
2023-01-25T08:06:03.467Z,7.60
2023-01-25T08:08:31.916Z,7.78
2023-01-25T08:10:58.640Z,8.25
2023-01-25T08:13:25.351Z,7.28
2023-01-25T08:15:55.699Z,6.45
2023-01-25T08:18:22.406Z,7.80
2023-01-25T08:20:49.147Z,7.10
2023-01-25T08:23:15.859Z,7.80
2023-01-25T08:25:43.911Z,7.07
2023-01-25T08:28:10.592Z,8.02
2023-01-25T08:30:41.237Z,8.30
2023-01-25T08:33:12.670Z,9.05
2023-01-25T08:35:39.393Z,8.63
2023-01-25T08:38:06.166Z,7.60
2023-01-25T08:40:34.207Z,7.50
2023-01-25T08:43:03.831Z,8.20
2023-01-25T08:45:30.592Z,6.70
2023-01-25T08:47:57.313Z,7.10
2023-01-25T08:50:24.019Z,7.13
2023-01-25T08:52:51.771Z,7.50
2023-01-25T08:55:18.523Z,7.03
2023-01-25T08:57:45.228Z,7.03
2023-01-25T09:00:14.908Z,7.38
2023-01-25T09:02:41.645Z,6.85
2023-01-25T09:05:09.210Z,8.05
2023-01-25T09:07:35.922Z,6.47
2023-01-25T09:10:02.678Z,6.90
2023-01-25T09:12:29.399Z,7.78
2023-01-25T09:14:56.111Z,8.32
2023-01-25T09:17:24.347Z,7.82
2023-01-25T09:22:22.689Z,6.88
2023-01-25T09:24:49.579Z,7.28
2023-01-25T09:27:16.319Z,7.03
2023-01-25T09:29:49.613Z,7.53
2023-01-25T09:32:28.401Z,7.45
2023-01-25T09:34:55.196Z,10.77
2023-01-25T09:37:21.904Z,8.05
2023-01-25T09:39:48.621Z,8.23
2023-01-25T09:42:43.199Z,8.68
2023-01-25T09:47:54.375Z,7.18
2023-01-25T09:50:36.123Z,8.73
2023-01-25T09:53:31.128Z,7.28
2023-01-25T09:56:01.047Z,8.75
2023-01-25T09:58:37.560Z,7.90
2023-01-25T10:01:21.642Z,7.30
2023-01-25T10:03:58.766Z,8.68
2023-01-25T10:06:38.612Z,8.10
2023-01-25T10:09:27.400Z,7.88
2023-01-25T10:11:54.302Z,7.40
2023-01-25T10:14:21.075Z,7.25
2023-01-25T10:17:01.324Z,7.25
2023-01-25T10:19:41.934Z,8.32
2023-01-25T10:22:13.691Z,6.95
2023-01-25T10:24:57.536Z,7.53
2023-01-25T10:27:30.284Z,7.32
2023-01-25T10:29:58.757Z,6.78
2023-01-25T10:32:28.238Z,7.75
2023-01-25T10:35:00.275Z,7.93
2023-01-25T10:37:30.781Z,8.93
2023-01-25T10:40:02.887Z,7.07
2023-01-25T10:42:36.199Z,8.05
2023-01-25T10:45:05.363Z,7.20
2023-01-25T10:47:35.317Z,8.48
2023-01-25T10:50:03.871Z,9.43
2023-01-25T10:52:32.832Z,8.65
2023-01-25T10:55:13.633Z,8.85
2023-01-25T10:57:44.095Z,9.25
2023-01-25T11:00:23.668Z,8.35
2023-01-25T11:02:50.373Z,8.02
2023-01-25T11:05:30.425Z,10.43
2023-01-25T11:07:57.873Z,9.75
2023-01-25T11:10:35.225Z,8.77
2023-01-25T11:13:21.058Z,10.02
2023-01-25T11:15:51.566Z,10.68
2023-01-25T11:18:21.405Z,8.85
2023-01-25T11:21:05.285Z,8.68
2023-01-25T11:23:32.555Z,8.00
2023-01-25T11:26:12.701Z,9.05
2023-01-25T11:28:39.601Z,9.00
2023-01-25T11:31:11.370Z,8.13
2023-01-25T11:33:38.865Z,9.00
2023-01-25T11:36:17.421Z,9.90
2023-01-25T11:38:54.945Z,11.15
2023-01-25T11:41:38.447Z,11.23
2023-01-25T11:44:28.868Z,10.40
2023-01-25T11:47:02.540Z,9.93
2023-01-25T11:49:39.152Z,9.38
2023-01-25T11:52:19.798Z,8.85
2023-01-25T11:54:56.339Z,9.85
2023-01-25T11:57:54.887Z,12.38
2023-01-25T12:00:32.134Z,10.38
2023-01-25T12:03:30.799Z,9.55
2023-01-25T12:06:04.984Z,9.80
2023-01-25T12:08:53.646Z,8.50
2023-01-25T12:11:38.507Z,10.45
2023-01-25T12:14:11.404Z,9.93
2023-01-25T12:16:52.217Z,10.73
2023-01-25T12:19:37.220Z,10.10
2023-01-25T12:22:22.068Z,10.23
2023-01-25T12:24:59.223Z,10.13
2023-01-25T12:27:40.682Z,8.93
2023-01-25T12:30:15.986Z,9.80
2023-01-25T12:32:48.752Z,9.43
2023-01-25T12:35:26.202Z,10.18
2023-01-25T12:37:58.320Z,9.15
2023-01-25T12:40:35.915Z,10.43
2023-01-25T12:43:03.374Z,11.10
2023-01-25T12:45:33.841Z,10.85
2023-01-25T12:48:06.180Z,13.15
2023-01-25T12:50:38.698Z,8.93
2023-01-25T12:53:13.469Z,9.00
2023-01-25T12:55:41.857Z,9.57
2023-01-25T12:58:23.799Z,9.13
2023-01-25T13:01:02.337Z,7.70
2023-01-25T13:03:34.584Z,10.23
2023-01-25T13:06:09.458Z,10.80
2023-01-25T13:08:48.713Z,10.32
2023-01-25T13:11:19.993Z,8.35
2023-01-25T13:13:46.886Z,8.80
2023-01-25T13:16:38.376Z,9.15
2023-01-25T13:19:18.053Z,9.95
2023-01-25T13:21:45.834Z,10.38
2023-01-25T13:24:16.457Z,9.40
2023-01-25T13:26:50.201Z,11.00
2023-01-25T13:29:44.287Z,9.73
2023-01-25T13:32:12.227Z,9.60
2023-01-25T13:34:59.117Z,10.90
2023-01-25T13:37:27.759Z,10.57
2023-01-25T13:39:55.088Z,11.95
2023-01-25T13:42:24.987Z,8.82
2023-01-25T13:44:55.103Z,10.77
2023-01-25T13:47:25.245Z,10.70
2023-01-25T13:50:00.099Z,10.75
2023-01-25T13:52:28.605Z,9.23
2023-01-25T13:54:56.584Z,10.18
2023-01-25T13:57:26.577Z,10.32
2023-01-25T14:00:11.953Z,9.57
2023-01-25T14:02:40.377Z,10.50
2023-01-25T14:05:17.772Z,10.57
2023-01-25T14:07:47.616Z,8.88
2023-01-25T14:10:17.859Z,9.50
2023-01-25T14:12:46.800Z,9.95
2023-01-25T14:15:22.968Z,8.45
2023-01-25T14:18:14.374Z,10.10
2023-01-25T14:20:41.524Z,10.05
2023-01-25T14:23:21.560Z,11.45
2023-01-25T14:25:48.397Z,8.50
2023-01-25T14:28:17.027Z,8.07
2023-01-25T14:30:43.748Z,7.50
2023-01-25T14:33:19.208Z,8.80
2023-01-25T14:35:55.575Z,7.85
2023-01-25T14:38:27.724Z,7.80
2023-01-25T14:40:57.948Z,11.00
2023-01-25T14:43:26.829Z,8.75
2023-01-25T14:45:53.626Z,9.23
2023-01-25T14:48:37.599Z,10.57
2023-01-25T14:51:18.097Z,11.35
2023-01-25T14:53:47.766Z,12.57
2023-01-25T14:56:27.981Z,9.82
2023-01-25T14:58:59.730Z,9.77
2023-01-25T15:01:32.854Z,9.82
2023-01-25T15:03:59.707Z,11.30
2023-01-25T15:06:26.524Z,12.77
2023-01-25T15:08:53.387Z,11.88
2023-01-25T15:11:30.041Z,11.68
2023-01-25T15:14:03.398Z,10.85
2023-01-25T15:16:33.866Z,11.23
2023-01-25T15:19:00.605Z,14.23
2023-01-25T15:21:29.330Z,10.75
2023-01-25T15:23:57.524Z,10.55
2023-01-25T15:26:25.981Z,11.50
2023-01-25T15:28:54.400Z,9.35
2023-01-25T15:31:25.102Z,11.25
2023-01-25T15:33:51.908Z,11.85
2023-01-25T15:36:18.715Z,9.63
2023-01-25T15:38:45.676Z,9.57
2023-01-25T15:41:12.579Z,12.15
2023-01-25T15:43:39.699Z,10.45
2023-01-25T15:46:11.328Z,10.43
2023-01-25T15:48:44.254Z,12.80
2023-01-25T15:51:12.269Z,12.15
2023-01-25T15:53:39.391Z,9.45
2023-01-25T15:56:12.786Z,11.82
2023-01-25T15:58:41.778Z,10.32
2023-01-25T16:01:08.671Z,9.57
2023-01-25T16:03:36.017Z,9.77
2023-01-25T16:06:07.063Z,8.93
2023-01-25T16:08:37.157Z,10.63
2023-01-25T16:11:03.907Z,10.77
2023-01-25T16:13:30.638Z,9.00
2023-01-25T16:15:57.336Z,10.20
2023-01-25T16:18:24.086Z,9.80
2023-01-25T16:20:50.854Z,10.70
2023-01-25T16:23:19.601Z,9.57
2023-01-25T16:25:48.612Z,9.73
2023-01-25T16:28:16.063Z,9.70
2023-01-25T16:30:43.458Z,12.20
2023-01-25T16:33:10.295Z,9.10
2023-01-25T16:35:36.998Z,12.50
2023-01-25T16:38:03.689Z,24.30
2023-01-25T16:40:35.709Z,15.95
2023-01-25T16:43:02.713Z,26.85
2023-01-25T16:45:29.441Z,14.05
2023-01-25T16:47:56.222Z,12.52
2023-01-25T16:50:23.584Z,13.18
2023-01-25T16:52:50.547Z,11.05
2023-01-25T16:55:19.060Z,10.35
2023-01-25T16:57:50.197Z,10.98
2023-01-25T17:00:17.788Z,9.07
2023-01-25T17:02:58.185Z,10.13
2023-01-25T17:05:26.081Z,9.27
2023-01-25T17:07:53.209Z,8.20
2023-01-25T17:10:20.064Z,7.05
2023-01-25T17:12:48.149Z,6.28
2023-01-25T17:15:14.996Z,8.38
2023-01-25T17:17:41.757Z,7.93
2023-01-25T17:20:10.320Z,11.02
2023-01-25T17:22:37.620Z,8.52
2023-01-25T17:25:04.775Z,8.07
2023-01-25T17:27:31.771Z,7.55
2023-01-25T17:29:59.843Z,7.90
2023-01-25T17:32:26.577Z,6.03
2023-01-25T17:34:53.325Z,7.13
2023-01-25T17:37:20.131Z,7.00
2023-01-25T17:39:46.863Z,6.20
2023-01-25T17:42:13.617Z,8.20
2023-01-25T17:44:40.323Z,7.90
2023-01-25T17:47:08.377Z,8.10
2023-01-25T17:49:35.624Z,8.98
2023-01-25T17:52:02.351Z,8.48
2023-01-25T17:54:29.061Z,10.10
2023-01-25T17:56:56.642Z,14.88
2023-01-25T17:59:23.594Z,16.15
2023-01-25T18:01:50.681Z,18.25
2023-01-25T18:04:18.735Z,9.20
2023-01-25T18:06:45.480Z,9.30
2023-01-25T18:09:15.354Z,8.43
2023-01-25T18:11:44.872Z,7.95
2023-01-25T18:14:14.309Z,7.70
2023-01-25T18:16:42.426Z,8.50
2023-01-25T18:19:11.038Z,7.55
2023-01-25T18:21:40.008Z,9.05
2023-01-25T18:24:24.805Z,8.77
2023-01-25T18:26:54.350Z,9.05
2023-01-25T18:29:35.221Z,8.32
2023-01-25T18:32:02.962Z,8.15
2023-01-25T18:34:31.981Z,7.90
2023-01-25T18:37:00.730Z,8.07
2023-01-25T18:39:28.028Z,9.20
2023-01-25T18:41:55.450Z,7.93
2023-01-25T18:44:22.682Z,8.55
2023-01-25T18:46:50.183Z,7.22
2023-01-25T18:49:18.022Z,6.80
2023-01-25T18:52:02.245Z,7.45
2023-01-25T18:54:36.475Z,7.57
2023-01-25T18:57:04.660Z,8.40
2023-01-25T18:59:31.805Z,7.80
2023-01-25T19:01:59.045Z,8.23
2023-01-25T19:04:26.669Z,7.50
2023-01-25T19:06:54.530Z,8.48
2023-01-25T19:09:21.850Z,8.15
2023-01-25T19:11:50.530Z,7.28
2023-01-25T19:14:17.922Z,7.38
2023-01-25T19:16:45.428Z,6.55
2023-01-25T19:19:14.123Z,9.23
2023-01-25T19:21:41.911Z,8.52
2023-01-25T19:24:12.456Z,8.02
2023-01-25T19:26:39.931Z,9.75
2023-01-25T19:29:08.925Z,8.18
2023-01-25T19:31:36.605Z,10.00
2023-01-25T19:34:05.675Z,11.35
2023-01-25T19:36:35.123Z,15.95
2023-01-25T19:39:06.046Z,11.68
2023-01-25T19:41:34.798Z,9.60
2023-01-25T19:44:05.058Z,10.07
2023-01-25T19:46:36.554Z,8.45
2023-01-25T19:49:06.690Z,9.07
2023-01-25T19:51:35.988Z,7.95
2023-01-25T19:54:05.375Z,7.65
2023-01-25T19:56:34.355Z,8.77
2023-01-25T19:59:03.593Z,8.45
2023-01-25T20:01:31.837Z,7.10
2023-01-25T20:04:00.566Z,7.50
2023-01-25T20:06:27.723Z,7.75
2023-01-25T20:08:54.939Z,6.03
2023-01-25T20:11:24.716Z,6.90
2023-01-25T20:13:54.239Z,6.93
2023-01-25T20:16:23.332Z,12.35
2023-01-25T20:18:50.219Z,8.85
2023-01-25T20:21:20.341Z,12.48
2023-01-25T20:23:48.849Z,10.93
2023-01-25T20:26:18.046Z,14.18
2023-01-25T20:28:47.632Z,10.73
2023-01-25T20:31:20.069Z,7.93
2023-01-25T20:33:47.566Z,9.43
2023-01-25T20:36:14.396Z,8.18
2023-01-25T20:38:42.870Z,7.55
2023-01-25T20:41:11.705Z,9.07
2023-01-25T20:43:38.927Z,7.32
2023-01-25T20:46:05.716Z,8.20
2023-01-25T20:48:32.932Z,7.50
2023-01-25T20:51:04.131Z,8.10
2023-01-25T20:53:31.148Z,6.40
2023-01-25T20:55:59.355Z,7.03
2023-01-25T20:58:26.465Z,6.68
2023-01-25T21:00:53.530Z,6.68
2023-01-25T21:03:20.767Z,6.30
2023-01-25T21:05:51.422Z,8.20
2023-01-25T21:08:18.414Z,7.88
2023-01-25T21:10:49.747Z,6.82
2023-01-25T21:13:18.474Z,6.45
2023-01-25T21:15:56.705Z,9.32
2023-01-25T21:18:23.519Z,6.38
2023-01-25T21:20:50.988Z,7.13
2023-01-25T21:23:17.760Z,6.60
2023-01-25T21:25:44.485Z,6.72
2023-01-25T21:28:11.164Z,5.35
2023-01-25T21:30:39.236Z,6.95
2023-01-25T21:33:05.948Z,6.43
2023-01-25T21:35:33.158Z,6.45
2023-01-25T21:37:59.868Z,6.28
2023-01-25T21:40:26.576Z,6.43
2023-01-25T21:42:53.264Z,5.35
2023-01-25T21:45:19.996Z,6.45
2023-01-25T21:47:48.079Z,7.03
2023-01-25T21:50:15.043Z,6.53
2023-01-25T21:52:41.749Z,6.22
2023-01-25T21:55:09.741Z,18.73
2023-01-25T21:57:36.461Z,21.77
2023-01-25T22:00:04.497Z,7.20
2023-01-25T22:02:31.242Z,7.45
2023-01-25T22:04:59.289Z,7.47
2023-01-25T22:07:26.075Z,7.32
2023-01-25T22:09:52.752Z,7.63
2023-01-25T22:12:19.480Z,6.60
2023-01-25T22:14:46.190Z,6.95
2023-01-25T22:17:12.875Z,6.10
2023-01-25T22:19:39.578Z,6.90
2023-01-25T22:22:07.622Z,6.45
2023-01-25T22:24:34.357Z,6.50
2023-01-25T22:27:26.249Z,6.43
2023-01-25T22:29:52.948Z,6.22
2023-01-25T22:32:19.647Z,6.63
2023-01-25T22:34:46.347Z,6.82
2023-01-25T22:37:14.377Z,6.55
2023-01-25T22:39:41.081Z,6.68
2023-01-25T22:42:07.793Z,5.85
2023-01-25T22:44:34.492Z,6.25
2023-01-25T22:47:02.808Z,6.20
2023-01-25T22:49:29.529Z,6.55
2023-01-25T22:51:56.223Z,5.78
2023-01-25T22:54:24.314Z,5.72
2023-01-25T22:56:51.015Z,9.50
2023-01-25T22:59:17.720Z,10.60
2023-01-25T23:01:45.070Z,8.43
2023-01-25T23:04:11.826Z,7.50
2023-01-25T23:06:38.538Z,8.00
2023-01-25T23:09:06.704Z,10.00
2023-01-25T23:11:36.559Z,7.72
2023-01-25T23:14:04.753Z,7.78
2023-01-25T23:16:31.935Z,7.10
2023-01-25T23:18:59.212Z,7.13
2023-01-25T23:21:27.915Z,7.70
2023-01-25T23:23:55.987Z,7.57
2023-01-25T23:26:23.511Z,7.60
2023-01-25T23:28:52.900Z,7.65
2023-01-25T23:31:21.004Z,6.80
2023-01-25T23:33:49.667Z,8.75
2023-01-25T23:36:18.246Z,6.35
2023-01-25T23:38:45.643Z,6.55
2023-01-25T23:41:12.781Z,6.18
2023-01-25T23:43:39.589Z,6.65
2023-01-25T23:46:07.960Z,6.90
2023-01-25T23:48:34.927Z,7.15
2023-01-25T23:51:01.813Z,7.25
2023-01-25T23:53:29.419Z,7.13
2023-01-25T23:55:58.060Z,7.15
2023-01-25T23:58:25.742Z,6.40
